createdAt,value
2018-11-10T00:00:04.250Z,49.20
2018-11-10T00:02:32.724Z,49.30
2018-11-10T00:05:01.044Z,49.30
2018-11-10T00:07:29.548Z,49.40
2018-11-10T00:09:57.864Z,49.50
2018-11-10T00:12:26.225Z,49.50
2018-11-10T00:14:54.657Z,49.60
2018-11-10T00:17:23.005Z,49.60
2018-11-10T00:19:51.393Z,49.50
2018-11-10T00:22:19.911Z,49.40
2018-11-10T00:24:48.288Z,49.30
2018-11-10T00:27:16.678Z,49.40
2018-11-10T00:29:44.988Z,49.00
2018-11-10T00:32:13.327Z,49.40
2018-11-10T00:34:41.811Z,49.50
2018-11-10T00:37:10.132Z,49.40
2018-11-10T00:39:38.524Z,49.40
2018-11-10T00:42:07.093Z,49.60
2018-11-10T00:44:35.484Z,49.60
2018-11-10T00:47:03.948Z,49.50
2018-11-10T00:49:32.343Z,49.50
2018-11-10T00:52:01.299Z,49.60
2018-11-10T00:54:29.736Z,49.60
2018-11-10T00:56:58.115Z,49.80
2018-11-10T00:59:26.478Z,49.90
2018-11-10T01:01:55.054Z,50.10
2018-11-10T01:04:23.427Z,50.10
2018-11-10T01:06:51.764Z,50.00
2018-11-10T01:09:20.089Z,50.10
2018-11-10T01:11:48.503Z,50.80
2018-11-10T01:14:16.881Z,50.40
2018-11-10T01:16:45.186Z,50.40
2018-11-10T01:19:13.476Z,50.60
2018-11-10T01:21:41.807Z,50.60
2018-11-10T01:24:10.136Z,50.80
2018-11-10T01:26:38.483Z,51.20
2018-11-10T01:29:07.203Z,51.40
2018-11-10T01:31:35.510Z,51.50
2018-11-10T01:34:03.944Z,51.80
2018-11-10T01:36:32.477Z,52.30
2018-11-10T01:39:02.246Z,51.80
2018-11-10T01:41:30.844Z,51.70
2018-11-10T01:43:59.219Z,51.80
2018-11-10T01:46:27.596Z,52.00
2018-11-10T01:48:55.948Z,52.00
2018-11-10T01:51:24.285Z,51.80
2018-11-10T01:53:52.774Z,51.80
2018-11-10T01:56:21.108Z,51.70
2018-11-10T01:58:49.439Z,51.40
2018-11-10T02:01:17.756Z,51.30
2018-11-10T02:03:46.080Z,51.40
2018-11-10T02:06:14.420Z,51.00
2018-11-10T02:08:42.762Z,51.00
2018-11-10T02:11:11.076Z,50.80
2018-11-10T02:13:39.420Z,50.80
2018-11-10T02:16:07.728Z,50.70
2018-11-10T02:18:36.208Z,50.70
2018-11-10T02:21:04.780Z,50.50
2018-11-10T02:23:33.115Z,50.40
2018-11-10T02:26:01.657Z,50.40
2018-11-10T02:28:30.128Z,50.40
2018-11-10T02:30:58.560Z,50.40
2018-11-10T02:33:27.064Z,50.20
2018-11-10T02:35:55.428Z,50.30
2018-11-10T02:38:23.789Z,50.50
2018-11-10T02:40:52.084Z,50.20
2018-11-10T02:43:20.397Z,50.20
2018-11-10T02:45:48.722Z,50.10
2018-11-10T02:48:17.040Z,50.10
2018-11-10T02:50:45.337Z,50.20
2018-11-10T02:53:13.741Z,50.10
2018-11-10T02:55:42.004Z,49.90
2018-11-10T02:58:10.321Z,49.80
2018-11-10T03:00:38.651Z,49.70
2018-11-10T03:03:06.976Z,49.60
2018-11-10T03:05:35.340Z,49.50
2018-11-10T03:08:03.691Z,49.30
2018-11-10T03:10:32.077Z,49.60
2018-11-10T03:13:00.406Z,49.30
2018-11-10T03:15:28.778Z,49.60
2018-11-10T03:17:57.729Z,49.60
2018-11-10T03:20:26.220Z,49.50
2018-11-10T03:22:54.519Z,49.60
2018-11-10T03:25:22.848Z,49.50
2018-11-10T03:27:51.196Z,49.60
2018-11-10T03:30:19.580Z,49.60
2018-11-10T03:32:47.901Z,49.70
2018-11-10T03:35:16.255Z,49.60
2018-11-10T03:37:44.555Z,49.70
2018-11-10T03:40:13.099Z,49.50
2018-11-10T03:42:41.610Z,49.40
2018-11-10T03:45:11.224Z,49.20
2018-11-10T03:47:40.101Z,49.20
2018-11-10T03:50:09.048Z,49.00
2018-11-10T03:52:37.523Z,49.30
2018-11-10T03:55:07.153Z,49.10
2018-11-10T03:57:35.470Z,49.20
2018-11-10T04:00:04.048Z,49.30
2018-11-10T04:02:32.419Z,49.30
2018-11-10T04:05:00.824Z,49.40
2018-11-10T04:07:29.143Z,49.40
2018-11-10T04:09:57.523Z,49.40
2018-11-10T04:12:25.845Z,49.30
2018-11-10T04:14:54.218Z,49.20
2018-11-10T04:17:22.533Z,49.40
2018-11-10T04:19:50.851Z,49.60
2018-11-10T04:22:26.621Z,49.70
2018-11-10T04:24:55.167Z,50.00
2018-11-10T04:27:23.492Z,50.30
2018-11-10T04:29:51.854Z,50.50
2018-11-10T04:32:20.175Z,51.00
2018-11-10T04:34:49.446Z,51.10
2018-11-10T04:37:17.730Z,51.20
2018-11-10T04:39:46.035Z,51.20
2018-11-10T04:42:14.372Z,51.40
2018-11-10T04:44:42.890Z,51.50
2018-11-10T04:47:11.228Z,51.60
2018-11-10T04:49:39.941Z,51.90
2018-11-10T04:52:08.960Z,51.80
2018-11-10T04:54:37.592Z,51.80
2018-11-10T04:57:06.142Z,51.90
2018-11-10T04:59:34.460Z,52.00
2018-11-10T05:02:02.928Z,51.90
2018-11-10T05:04:31.311Z,51.80
2018-11-10T05:06:59.995Z,51.70
2018-11-10T05:09:28.340Z,51.90
2018-11-10T05:11:56.959Z,51.80
2018-11-10T05:14:26.061Z,51.80
2018-11-10T05:16:54.400Z,51.80
2018-11-10T05:19:22.709Z,51.90
2018-11-10T05:21:52.072Z,52.10
2018-11-10T05:24:20.437Z,52.00
2018-11-10T05:26:48.763Z,51.80
2018-11-10T05:29:20.196Z,51.90
2018-11-10T05:31:49.097Z,52.50
2018-11-10T05:34:17.457Z,51.90
2018-11-10T05:36:45.830Z,51.90
2018-11-10T05:39:14.162Z,51.90
2018-11-10T05:41:42.716Z,52.20
2018-11-10T05:44:11.196Z,51.70
2018-11-10T05:46:39.544Z,52.00
2018-11-10T05:49:08.047Z,51.90
2018-11-10T05:51:36.425Z,51.90
2018-11-10T05:54:05.271Z,51.90
2018-11-10T05:56:33.660Z,52.10
2018-11-10T05:59:01.997Z,52.20
2018-11-10T06:01:30.409Z,52.60
2018-11-10T06:03:58.850Z,53.10
2018-11-10T06:06:27.187Z,52.80
2018-11-10T06:08:55.623Z,53.10
2018-11-10T06:11:23.952Z,53.10
2018-11-10T06:13:52.340Z,52.80
2018-11-10T06:16:20.715Z,52.90
2018-11-10T06:18:49.088Z,52.90
2018-11-10T06:21:17.471Z,52.80
2018-11-10T06:23:45.807Z,52.60
2018-11-10T06:26:14.188Z,52.50
2018-11-10T06:28:42.492Z,52.50
2018-11-10T06:31:10.851Z,52.30
2018-11-10T06:33:39.272Z,53.40
2018-11-10T06:36:08.235Z,53.50
2018-11-10T06:38:36.636Z,52.90
2018-11-10T06:41:05.695Z,51.90
2018-11-10T06:43:34.254Z,52.10
2018-11-10T06:46:02.744Z,52.30
2018-11-10T06:48:31.060Z,51.60
2018-11-10T06:50:59.476Z,51.80
2018-11-10T06:53:28.028Z,51.70
2018-11-10T06:55:56.404Z,51.70
2018-11-10T06:58:24.729Z,51.50
2018-11-10T07:00:53.116Z,51.60
2018-11-10T07:03:21.577Z,51.80
2018-11-10T07:05:49.946Z,52.30
2018-11-10T07:08:18.323Z,51.80
2018-11-10T07:10:46.639Z,51.80
2018-11-10T07:13:14.948Z,51.50
2018-11-10T07:15:43.260Z,52.10
2018-11-10T07:18:11.765Z,51.50
2018-11-10T07:20:40.017Z,51.40
2018-11-10T07:23:08.393Z,51.70
2018-11-10T07:25:36.712Z,51.30
2018-11-10T07:28:05.512Z,51.30
2018-11-10T07:30:33.976Z,51.40
2018-11-10T07:33:02.565Z,51.50
2018-11-10T07:35:32.089Z,51.40
2018-11-10T07:38:00.567Z,52.00
2018-11-10T07:40:28.913Z,52.10
2018-11-10T07:42:57.348Z,52.10
2018-11-10T07:45:25.668Z,51.70
2018-11-10T07:47:53.991Z,51.70
2018-11-10T07:50:22.303Z,51.60
2018-11-10T07:52:50.615Z,52.10
2018-11-10T07:55:18.918Z,52.00
2018-11-10T07:57:47.218Z,52.00
2018-11-10T08:00:17.677Z,51.60
2018-11-10T08:02:46.023Z,52.10
2018-11-10T08:05:15.013Z,51.90
2018-11-10T08:07:44.081Z,52.10
2018-11-10T08:10:13.188Z,52.20
2018-11-10T08:12:41.599Z,52.00
2018-11-10T08:15:14.071Z,51.70
2018-11-10T08:17:42.445Z,52.00
2018-11-10T08:20:11.462Z,52.10
2018-11-10T08:22:39.884Z,52.30
2018-11-10T08:25:10.377Z,52.20
2018-11-10T08:27:38.985Z,52.40
2018-11-10T08:30:09.227Z,52.90
2018-11-10T08:32:37.543Z,52.60
2018-11-10T08:35:06.951Z,53.00
2018-11-10T08:37:35.312Z,52.50
2018-11-10T08:40:03.905Z,52.00
2018-11-10T08:42:32.903Z,52.10
2018-11-10T08:45:01.306Z,51.20
2018-11-10T08:47:29.719Z,50.40
2018-11-10T08:49:58.087Z,50.50
2018-11-10T08:52:26.446Z,50.00
2018-11-10T08:54:54.781Z,50.50
2018-11-10T08:57:23.165Z,51.00
2018-11-10T08:59:52.616Z,50.50
2018-11-10T09:02:20.949Z,49.70
2018-11-10T09:04:49.268Z,49.30
2018-11-10T09:07:17.589Z,49.00
2018-11-10T09:09:46.013Z,49.10
2018-11-10T09:12:14.420Z,48.60
2018-11-10T09:14:42.710Z,47.90
2018-11-10T09:17:11.079Z,47.80
2018-11-10T09:19:39.396Z,48.00
2018-11-10T09:22:08.796Z,47.90
2018-11-10T09:24:37.564Z,47.50
2018-11-10T09:27:06.191Z,47.50
2018-11-10T09:29:34.757Z,47.50
2018-11-10T09:32:03.132Z,48.00
2018-11-10T09:34:31.653Z,47.90
2018-11-10T09:37:00.121Z,48.30
2018-11-10T09:39:28.486Z,48.50
2018-11-10T09:41:56.850Z,48.40
2018-11-10T09:44:25.188Z,48.50
2018-11-10T09:46:53.473Z,48.80
2018-11-10T09:49:23.907Z,48.90
2018-11-10T09:51:52.279Z,49.10
2018-11-10T09:54:20.593Z,49.60
2018-11-10T09:56:48.927Z,49.00
2018-11-10T09:59:17.247Z,49.10
2018-11-10T10:01:45.774Z,48.80
2018-11-10T10:04:13.961Z,48.80
2018-11-10T10:06:42.347Z,48.70
2018-11-10T10:09:11.530Z,48.50
2018-11-10T10:11:40.304Z,48.10
2018-11-10T10:14:09.524Z,48.20
2018-11-10T10:16:38.081Z,47.90
2018-11-10T10:19:07.361Z,48.10
2018-11-10T10:21:35.751Z,47.80
2018-11-10T10:24:04.238Z,47.70
2018-11-10T10:26:32.634Z,47.70
2018-11-10T10:29:01.237Z,48.40
2018-11-10T10:31:29.484Z,48.00
2018-11-10T10:33:57.989Z,48.20
2018-11-10T10:36:26.456Z,48.50
2018-11-10T10:38:54.789Z,48.20
2018-11-10T10:41:23.092Z,48.20
2018-11-10T10:43:51.444Z,48.20
2018-11-10T10:46:19.853Z,48.30
2018-11-10T10:48:48.421Z,48.10
2018-11-10T10:51:16.596Z,48.20
2018-11-10T10:53:45.156Z,48.10
2018-11-10T10:56:13.521Z,48.00
2018-11-10T10:58:41.829Z,48.20
2018-11-10T11:01:15.508Z,48.30
2018-11-10T11:03:49.274Z,48.50
2018-11-10T11:06:17.601Z,48.60
2018-11-10T11:08:45.945Z,47.90
2018-11-10T11:11:14.308Z,48.00
2018-11-10T11:13:42.737Z,48.50
2018-11-10T11:16:11.094Z,48.20
2018-11-10T11:18:39.469Z,48.30
2018-11-10T11:21:07.828Z,49.00
2018-11-10T11:23:36.323Z,48.60
2018-11-10T11:26:05.213Z,48.30
2018-11-10T11:28:33.735Z,48.60
2018-11-10T11:31:02.137Z,48.60
2018-11-10T11:33:30.703Z,48.60
2018-11-10T11:35:59.185Z,48.60
2018-11-10T11:38:27.875Z,48.40
2018-11-10T11:40:56.290Z,48.50
2018-11-10T11:43:24.644Z,48.70
2018-11-10T11:45:53.292Z,48.50
2018-11-10T11:48:21.676Z,48.90
2018-11-10T11:50:50.085Z,48.90
2018-11-10T11:53:18.519Z,49.10
2018-11-10T11:55:46.985Z,49.00
2018-11-10T11:58:15.410Z,48.80
2018-11-10T12:00:43.831Z,48.70
2018-11-10T12:03:12.201Z,48.40
2018-11-10T12:05:40.684Z,48.30
2018-11-10T12:08:09.076Z,49.10
2018-11-10T12:10:37.663Z,48.30
2018-11-10T12:13:06.208Z,48.10
2018-11-10T12:15:34.726Z,48.30
2018-11-10T12:18:03.316Z,47.60
2018-11-10T12:20:31.819Z,46.20
2018-11-10T12:23:00.568Z,46.00
2018-11-10T12:25:29.223Z,45.60
2018-11-10T12:27:57.645Z,45.20
2018-11-10T12:30:26.035Z,45.20
2018-11-10T12:32:54.415Z,45.40
2018-11-10T12:35:22.846Z,44.70
2018-11-10T12:37:51.308Z,45.70
2018-11-10T12:40:19.680Z,44.00
2018-11-10T12:42:48.063Z,43.30
2018-11-10T12:45:16.412Z,43.40
2018-11-10T12:47:44.854Z,44.70
2018-11-10T12:50:14.249Z,45.30
2018-11-10T12:52:43.757Z,45.00
2018-11-10T12:55:13.298Z,45.00
2018-11-10T12:57:42.275Z,45.40
2018-11-10T13:00:12.177Z,44.60
2018-11-10T13:02:40.687Z,43.50
2018-11-10T13:05:10.262Z,43.60
2018-11-10T13:07:38.599Z,44.30
2018-11-10T13:10:07.723Z,43.90
2018-11-10T13:12:36.063Z,44.30
2018-11-10T13:15:04.543Z,44.50
2018-11-10T13:17:33.001Z,44.70
2018-11-10T13:20:01.300Z,45.30
2018-11-10T13:22:29.649Z,45.50
2018-11-10T13:24:58.021Z,45.70
2018-11-10T13:27:26.425Z,45.90
2018-11-10T13:29:54.860Z,45.30
2018-11-10T13:32:23.224Z,46.00
2018-11-10T13:34:51.549Z,46.00
2018-11-10T13:37:19.862Z,46.10
2018-11-10T13:39:48.156Z,46.30
2018-11-10T13:42:16.566Z,46.30
2018-11-10T13:44:44.904Z,46.50
2018-11-10T13:47:13.447Z,46.00
2018-11-10T13:49:42.109Z,45.90
2018-11-10T13:52:17.603Z,45.80
2018-11-10T13:54:45.755Z,45.80
2018-11-10T13:57:14.043Z,45.70
2018-11-10T13:59:42.385Z,46.40
2018-11-10T14:02:10.836Z,46.20
2018-11-10T14:04:39.147Z,46.30
2018-11-10T14:07:07.472Z,46.30
2018-11-10T14:09:35.803Z,46.60
2018-11-10T14:12:04.661Z,46.60
2018-11-10T14:14:33.069Z,46.60
2018-11-10T14:17:01.597Z,47.20
2018-11-10T14:19:29.995Z,45.50
2018-11-10T14:21:58.413Z,45.60
2018-11-10T14:24:26.806Z,45.40
2018-11-10T14:26:55.205Z,45.30
2018-11-10T14:29:23.564Z,45.60
2018-11-10T14:31:51.908Z,45.10
2018-11-10T14:34:20.256Z,45.90
2018-11-10T14:36:48.585Z,46.40
2018-11-10T14:39:16.876Z,46.40
2018-11-10T14:41:45.208Z,46.40
2018-11-10T14:44:13.575Z,45.80
2018-11-10T14:46:41.896Z,45.50
2018-11-10T14:49:10.226Z,45.50
2018-11-10T14:51:38.536Z,44.90
2018-11-10T14:54:07.053Z,44.60
2018-11-10T14:56:35.560Z,44.50
2018-11-10T14:59:04.208Z,44.20
2018-11-10T15:01:33.054Z,44.20
2018-11-10T15:04:01.622Z,43.90
2018-11-10T15:06:29.959Z,44.00
2018-11-10T15:08:58.428Z,43.90
2018-11-10T15:11:26.781Z,43.80
2018-11-10T15:13:55.170Z,43.40
2018-11-10T15:16:23.480Z,43.50
2018-11-10T15:18:51.916Z,43.30
2018-11-10T15:21:20.261Z,43.40
2018-11-10T15:23:48.597Z,43.20
2018-11-10T15:26:16.905Z,43.30
2018-11-10T15:28:45.484Z,43.40
2018-11-10T15:31:13.866Z,43.60
2018-11-10T15:33:42.258Z,43.90
2018-11-10T15:36:10.569Z,41.20
2018-11-10T15:38:38.921Z,43.10
2018-11-10T15:41:07.363Z,40.00
2018-11-10T15:43:35.780Z,40.80
2018-11-10T15:46:04.433Z,41.70
2018-11-10T15:48:32.787Z,41.40
2018-11-10T15:51:01.115Z,41.70
2018-11-10T15:53:29.552Z,42.00
2018-11-10T15:55:57.944Z,42.50
2018-11-10T15:58:26.408Z,43.10
2018-11-10T16:00:54.851Z,43.20
2018-11-10T16:03:23.517Z,43.20
2018-11-10T16:05:51.821Z,43.90
2018-11-10T16:08:20.181Z,44.80
2018-11-10T16:10:48.539Z,44.30
2018-11-10T16:13:16.947Z,43.70
2018-11-10T16:15:45.401Z,44.30
2018-11-10T16:18:14.109Z,44.60
2018-11-10T16:20:42.536Z,44.30
2018-11-10T16:23:10.872Z,44.80
2018-11-10T16:25:39.229Z,44.80
2018-11-10T16:28:07.585Z,45.00
2018-11-10T16:30:36.737Z,44.70
2018-11-10T16:33:05.435Z,44.80
2018-11-10T16:35:33.876Z,44.50
2018-11-10T16:38:02.304Z,44.90
2018-11-10T16:40:30.828Z,44.20
2018-11-10T16:42:59.548Z,44.50
2018-11-10T16:45:28.093Z,45.20
2018-11-10T16:47:56.678Z,45.40
2018-11-10T16:50:25.053Z,46.00
2018-11-10T16:52:53.515Z,45.60
2018-11-10T16:55:21.901Z,46.90
2018-11-10T16:57:50.291Z,46.00
2018-11-10T17:00:19.599Z,45.80
2018-11-10T17:02:47.933Z,45.80
2018-11-10T17:05:16.276Z,45.20
2018-11-10T17:07:47.636Z,45.60
2018-11-10T17:10:17.161Z,45.20
2018-11-10T17:12:45.484Z,45.90
2018-11-10T17:15:13.827Z,46.10
2018-11-10T17:17:42.224Z,46.00
2018-11-10T17:20:12.872Z,45.80
2018-11-10T17:22:41.221Z,45.80
2018-11-10T17:25:10.270Z,46.70
2018-11-10T17:27:38.995Z,45.40
2018-11-10T17:30:10.362Z,45.60
2018-11-10T17:32:38.643Z,45.50
2018-11-10T17:35:07.632Z,45.50
2018-11-10T17:37:36.003Z,45.60
2018-11-10T17:40:05.054Z,45.30
2018-11-10T17:42:33.378Z,45.80
2018-11-10T17:45:01.849Z,45.10
2018-11-10T17:47:30.149Z,45.60
2018-11-10T17:49:58.524Z,45.60
2018-11-10T17:52:26.848Z,46.00
2018-11-10T17:54:55.299Z,46.20
2018-11-10T17:57:23.512Z,45.30
2018-11-10T17:59:51.833Z,45.90
2018-11-10T18:02:20.256Z,45.20
2018-11-10T18:04:48.451Z,46.20
2018-11-10T18:07:16.751Z,45.50
2018-11-10T18:09:45.073Z,46.00
2018-11-10T18:12:13.363Z,44.80
2018-11-10T18:14:41.739Z,44.60
2018-11-10T18:17:10.029Z,44.90
2018-11-10T18:19:38.349Z,45.00
2018-11-10T18:22:06.701Z,45.20
2018-11-10T18:24:35.040Z,44.70
2018-11-10T18:27:03.372Z,44.50
2018-11-10T18:29:31.782Z,45.30
2018-11-10T18:32:00.130Z,44.60
2018-11-10T18:34:28.840Z,44.70
2018-11-10T18:36:57.554Z,44.80
2018-11-10T18:39:26.131Z,44.60
2018-11-10T18:41:54.563Z,44.60
2018-11-10T18:44:23.007Z,45.20
2018-11-10T18:46:51.402Z,45.20
2018-11-10T18:49:19.669Z,44.70
2018-11-10T18:51:48.140Z,44.40
2018-11-10T18:54:16.704Z,44.70
2018-11-10T18:56:45.009Z,44.80
2018-11-10T18:59:13.347Z,44.40
2018-11-10T19:01:41.670Z,45.00
2018-11-10T19:04:10.352Z,44.20
2018-11-10T19:06:38.656Z,44.00
2018-11-10T19:09:09.537Z,43.70
2018-11-10T19:11:38.004Z,44.00
2018-11-10T19:14:06.398Z,43.50
2018-11-10T19:16:34.680Z,44.70
2018-11-10T19:19:03.055Z,44.50
2018-11-10T19:21:31.425Z,44.00
2018-11-10T19:23:59.796Z,44.70
2018-11-10T19:26:28.213Z,44.70
2018-11-10T19:28:56.747Z,44.90
2018-11-10T19:31:25.080Z,45.00
2018-11-10T19:33:53.440Z,45.50
2018-11-10T19:36:21.771Z,45.50
2018-11-10T19:38:50.076Z,45.60
2018-11-10T19:41:19.080Z,45.70
2018-11-10T19:43:47.606Z,45.80
2018-11-10T19:46:15.930Z,45.30
2018-11-10T19:48:44.213Z,45.60
2018-11-10T19:51:13.940Z,44.90
2018-11-10T19:53:43.321Z,45.10
2018-11-10T19:56:12.170Z,45.90
2018-11-10T19:58:40.635Z,45.70
2018-11-10T20:01:09.751Z,46.00
2018-11-10T20:03:38.448Z,46.20
2018-11-10T20:06:06.752Z,47.80
2018-11-10T20:08:35.119Z,48.10
2018-11-10T20:11:03.463Z,47.90
2018-11-10T20:13:31.888Z,47.90
2018-11-10T20:16:00.357Z,47.60
2018-11-10T20:18:29.056Z,47.20
2018-11-10T20:20:57.472Z,47.00
2018-11-10T20:23:26.189Z,46.50
2018-11-10T20:25:54.488Z,46.40
2018-11-10T20:28:25.721Z,46.10
2018-11-10T20:30:54.067Z,45.90
2018-11-10T20:33:22.396Z,45.80
2018-11-10T20:35:50.720Z,45.50
2018-11-10T20:38:19.008Z,45.40
2018-11-10T20:40:47.316Z,45.40
2018-11-10T20:43:15.600Z,45.30
2018-11-10T20:45:43.969Z,45.20
2018-11-10T20:48:12.274Z,45.10
2018-11-10T20:50:40.596Z,45.10
2018-11-10T20:53:08.968Z,45.00
2018-11-10T20:55:37.463Z,45.00
2018-11-10T20:58:06.046Z,44.90
2018-11-10T21:00:34.563Z,44.90
2018-11-10T21:03:02.960Z,44.90
2018-11-10T21:05:31.658Z,44.90
2018-11-10T21:07:59.975Z,44.90
2018-11-10T21:10:28.319Z,44.90
2018-11-10T21:12:56.700Z,44.90
2018-11-10T21:15:25.012Z,44.80
2018-11-10T21:17:53.308Z,44.90
2018-11-10T21:20:21.863Z,44.80
2018-11-10T21:22:50.043Z,44.80
2018-11-10T21:25:18.763Z,45.10
2018-11-10T21:27:47.576Z,44.70
2018-11-10T21:30:18.118Z,44.70
2018-11-10T21:32:46.934Z,44.60
2018-11-10T21:35:15.373Z,44.50
2018-11-10T21:37:43.632Z,44.50
2018-11-10T21:40:20.501Z,44.60
2018-11-10T21:42:48.818Z,44.50
2018-11-10T21:45:17.780Z,44.50
2018-11-10T21:47:46.395Z,44.60
2018-11-10T21:50:16.017Z,44.40
2018-11-10T21:52:45.024Z,44.40
2018-11-10T21:55:15.544Z,44.20
2018-11-10T21:57:44.691Z,44.30
2018-11-10T22:00:14.688Z,44.10
2018-11-10T22:02:43.531Z,44.20
2018-11-10T22:05:12.108Z,44.30
2018-11-10T22:07:40.497Z,44.10
2018-11-10T22:10:10.932Z,44.10
2018-11-10T22:12:39.329Z,44.00
2018-11-10T22:15:10.062Z,44.00
2018-11-10T22:17:38.449Z,43.90
2018-11-10T22:20:08.388Z,44.00
2018-11-10T22:22:37.009Z,44.00
2018-11-10T22:25:06.064Z,44.00
2018-11-10T22:27:34.520Z,44.10
2018-11-10T22:30:02.915Z,43.90
2018-11-10T22:32:31.627Z,44.00
2018-11-10T22:34:59.952Z,44.00
2018-11-10T22:37:28.483Z,43.60
2018-11-10T22:39:56.855Z,44.00
2018-11-10T22:42:25.191Z,43.90
2018-11-10T22:44:53.508Z,44.00
2018-11-10T22:47:21.830Z,44.00
2018-11-10T22:49:50.167Z,43.90
2018-11-10T22:52:18.527Z,43.90
2018-11-10T22:54:46.832Z,43.90
2018-11-10T22:57:15.138Z,44.00
2018-11-10T22:59:43.451Z,44.00
2018-11-10T23:02:11.760Z,44.00
2018-11-10T23:04:40.096Z,43.60
2018-11-10T23:07:08.494Z,44.20
2018-11-10T23:09:36.837Z,44.30
2018-11-10T23:12:05.149Z,44.50
2018-11-10T23:14:33.521Z,44.60
2018-11-10T23:17:01.994Z,44.70
2018-11-10T23:19:30.424Z,44.80
2018-11-10T23:21:58.727Z,44.80
2018-11-10T23:24:27.248Z,44.90
2018-11-10T23:26:55.527Z,44.90
2018-11-10T23:29:23.815Z,44.90
2018-11-10T23:31:52.104Z,45.00
2018-11-10T23:34:20.436Z,45.00
2018-11-10T23:36:48.751Z,45.00
2018-11-10T23:39:17.064Z,45.10
2018-11-10T23:41:45.346Z,45.10
2018-11-10T23:44:13.636Z,45.20
2018-11-10T23:46:41.924Z,45.10
2018-11-10T23:49:11.356Z,45.30
2018-11-10T23:51:39.633Z,45.30
2018-11-10T23:54:08.001Z,45.40
2018-11-10T23:56:36.290Z,45.40
2018-11-10T23:59:04.743Z,45.50
